createdAt,value
2023-02-03T00:00:29.588Z,1.12
2023-02-03T00:03:46.923Z,1.07
2023-02-03T00:07:03.892Z,1.07
2023-02-03T00:10:22.185Z,1.11
2023-02-03T00:13:38.585Z,1.15
2023-02-03T00:16:55.297Z,1.10
2023-02-03T00:20:12.502Z,1.14
2023-02-03T00:23:30.678Z,1.10
2023-02-03T00:26:52.679Z,1.09
2023-02-03T00:30:09.058Z,1.11
2023-02-03T00:33:27.537Z,1.07
2023-02-03T00:36:44.413Z,1.10
2023-02-03T00:40:03.626Z,1.05
2023-02-03T00:43:19.933Z,1.05
2023-02-03T00:46:37.140Z,1.00
2023-02-03T00:49:53.526Z,1.04
2023-02-03T00:53:11.233Z,1.06
2023-02-03T00:56:28.438Z,1.04
2023-02-03T00:59:44.826Z,1.10
2023-02-03T01:03:01.082Z,1.02
2023-02-03T01:06:25.162Z,0.95
2023-02-03T01:09:45.547Z,0.98
2023-02-03T01:13:01.946Z,1.02
2023-02-03T01:16:21.551Z,0.94
2023-02-03T01:19:38.120Z,0.94
2023-02-03T01:22:54.455Z,0.94
2023-02-03T01:26:16.486Z,0.94
2023-02-03T01:29:33.001Z,0.96
2023-02-03T01:32:50.697Z,0.96
2023-02-03T01:36:09.989Z,0.92
2023-02-03T01:39:27.248Z,0.92
2023-02-03T01:42:44.126Z,0.80
2023-02-03T01:46:00.486Z,0.84
2023-02-03T01:53:30.897Z,0.82
2023-02-03T01:56:54.118Z,0.75
2023-02-03T02:00:13.325Z,0.78
2023-02-03T02:03:32.614Z,0.82
2023-02-03T02:06:49.714Z,0.79
2023-02-03T02:10:07.486Z,0.84
2023-02-03T02:13:25.338Z,0.82
2023-02-03T02:16:47.635Z,0.85
2023-02-03T02:20:40.367Z,0.83
2023-02-03T02:24:49.997Z,0.83
2023-02-03T02:28:59.214Z,0.78
2023-02-03T02:35:38.467Z,0.82
2023-02-03T02:39:02.980Z,0.75
2023-02-03T02:42:27.492Z,0.74
2023-02-03T02:45:52.357Z,0.71
2023-02-03T02:52:27.597Z,0.71
2023-02-03T02:55:46.533Z,0.61
2023-02-03T02:59:05.646Z,0.64
2023-02-03T03:05:38.249Z,0.56
2023-02-03T03:08:59.480Z,0.47
2023-02-03T03:12:20.959Z,0.52
2023-02-03T03:15:40.079Z,0.49
2023-02-03T03:22:16.991Z,0.34
2023-02-03T03:25:38.004Z,0.41
2023-02-03T03:28:58.545Z,0.40
2023-02-03T03:32:15.172Z,0.37
2023-02-03T03:35:36.722Z,0.23
2023-02-03T03:38:58.649Z,0.27
2023-02-03T03:42:21.413Z,0.23
2023-02-03T03:45:43.801Z,0.22
2023-02-03T03:49:05.200Z,0.22
2023-02-03T03:52:27.565Z,0.14
2023-02-03T03:55:46.987Z,0.22
2023-02-03T03:59:01.700Z,0.20
2023-02-03T04:02:19.151Z,0.23
2023-02-03T04:05:36.466Z,0.05
2023-02-03T04:08:52.646Z,0.04
2023-02-03T04:12:08.970Z,0.03
2023-02-03T04:15:25.513Z,0.03
2023-02-03T04:21:57.831Z,-0.10
2023-02-03T04:25:15.797Z,-0.07
2023-02-03T04:28:32.195Z,-0.05
2023-02-03T04:31:48.371Z,-0.03
2023-02-03T04:35:04.998Z,0.01
2023-02-03T04:38:21.391Z,0.01
2023-02-03T04:41:38.927Z,-0.05
2023-02-03T04:44:55.389Z,-0.11
2023-02-03T04:48:11.864Z,-0.15
2023-02-03T04:51:29.487Z,-0.18
2023-02-03T04:54:45.908Z,-0.31
2023-02-03T04:58:07.350Z,-0.29
2023-02-03T05:01:23.569Z,-0.25
2023-02-03T05:04:40.134Z,-0.34
2023-02-03T05:07:56.527Z,-0.40
2023-02-03T05:11:12.838Z,-0.42
2023-02-03T05:14:29.673Z,-0.43
2023-02-03T05:17:45.769Z,-0.46
2023-02-03T05:21:02.160Z,-0.48
2023-02-03T05:24:19.015Z,-0.48
2023-02-03T05:27:35.526Z,-0.42
2023-02-03T05:30:52.113Z,-0.42
2023-02-03T05:37:23.583Z,-0.45
2023-02-03T05:40:54.072Z,-0.47
2023-02-03T05:44:10.794Z,-0.55
2023-02-03T05:50:43.852Z,-0.63
2023-02-03T05:54:00.356Z,-0.64
2023-02-03T05:57:16.623Z,-0.68
2023-02-03T06:00:34.090Z,-0.74
2023-02-03T06:07:05.876Z,-0.74
2023-02-03T06:10:22.577Z,-0.70
2023-02-03T06:13:39.432Z,-0.70
2023-02-03T06:16:55.764Z,-0.71
2023-02-03T06:24:25.759Z,-0.75
2023-02-03T06:27:42.253Z,-0.71
2023-02-03T06:31:01.197Z,-0.67
2023-02-03T06:37:33.715Z,-0.70
2023-02-03T06:40:51.744Z,-0.67
2023-02-03T06:44:09.742Z,-0.61
2023-02-03T06:50:42.028Z,-0.45
2023-02-03T06:53:59.524Z,-0.48
2023-02-03T06:57:16.896Z,-0.52
2023-02-03T07:00:33.694Z,-0.50
2023-02-03T07:03:49.916Z,-0.50
2023-02-03T07:07:06.409Z,-0.45
2023-02-03T07:10:23.789Z,-0.41
2023-02-03T07:13:40.141Z,-0.40
2023-02-03T07:16:56.449Z,-0.37
2023-02-03T07:23:29.299Z,-0.30
2023-02-03T07:26:45.393Z,-0.24
2023-02-03T07:30:01.586Z,-0.24
2023-02-03T07:36:34.174Z,-0.19
2023-02-03T07:39:51.222Z,-0.12
2023-02-03T07:43:07.598Z,-0.10
2023-02-03T07:46:24.599Z,-0.04
2023-02-03T07:49:40.920Z,-0.03
2023-02-03T07:52:59.567Z,0.05
2023-02-03T07:56:16.341Z,0.03
2023-02-03T07:59:35.323Z,0.13
2023-02-03T08:02:52.177Z,0.18
2023-02-03T08:06:08.939Z,0.20
2023-02-03T08:09:25.533Z,0.17
2023-02-03T08:12:45.227Z,0.21
2023-02-03T08:16:02.097Z,0.29
2023-02-03T08:22:34.086Z,0.35
2023-02-03T08:25:50.491Z,0.37
2023-02-03T08:29:09.355Z,0.41
2023-02-03T08:32:28.090Z,0.37
2023-02-03T08:35:44.489Z,0.36
2023-02-03T08:39:00.851Z,0.46
2023-02-03T08:42:17.805Z,0.52
2023-02-03T08:45:34.245Z,0.51
2023-02-03T08:49:04.553Z,0.62
2023-02-03T08:52:22.009Z,0.60
2023-02-03T08:55:38.393Z,0.71
2023-02-03T08:58:56.123Z,0.73
2023-02-03T09:02:14.943Z,0.80
2023-02-03T09:05:31.553Z,0.85
2023-02-03T09:08:49.986Z,0.89
2023-02-03T09:12:07.260Z,0.99
2023-02-03T09:15:23.804Z,0.98
2023-02-03T09:18:40.496Z,1.04
2023-02-03T09:21:58.075Z,1.12
2023-02-03T09:25:17.132Z,1.12
2023-02-03T09:28:33.243Z,1.14
2023-02-03T09:31:49.867Z,1.23
2023-02-03T09:35:06.221Z,1.31
2023-02-03T09:38:22.636Z,1.38
2023-02-03T09:41:52.769Z,1.49
2023-02-03T09:45:19.003Z,1.51
2023-02-03T09:48:40.518Z,1.57
2023-02-03T09:52:01.833Z,1.58
2023-02-03T09:55:30.486Z,1.54
2023-02-03T09:58:46.926Z,1.45
2023-02-03T10:02:13.082Z,1.55
2023-02-03T10:05:37.155Z,1.55
2023-02-03T10:09:20.671Z,1.54
2023-02-03T10:12:59.903Z,1.36
2023-02-03T10:16:22.343Z,1.15
2023-02-03T10:22:57.700Z,1.24
2023-02-03T10:26:22.341Z,1.36
2023-02-03T10:29:43.619Z,1.44
2023-02-03T10:33:05.554Z,1.58
2023-02-03T10:36:27.161Z,1.57
2023-02-03T10:39:49.018Z,1.48
2023-02-03T10:43:19.148Z,1.44
2023-02-03T10:46:42.876Z,1.44
2023-02-03T10:50:01.401Z,1.49
2023-02-03T10:53:34.905Z,1.39
2023-02-03T10:56:51.270Z,1.27
2023-02-03T11:00:27.950Z,1.34
2023-02-03T11:03:47.239Z,1.33
2023-02-03T11:07:07.646Z,1.38
2023-02-03T11:10:44.153Z,1.48
2023-02-03T11:14:18.315Z,1.35
2023-02-03T11:17:37.190Z,0.97
2023-02-03T11:20:53.346Z,0.91
2023-02-03T11:24:17.452Z,0.68
2023-02-03T11:27:36.482Z,0.73
2023-02-03T11:30:54.311Z,0.66
2023-02-03T11:37:43.074Z,0.46
2023-02-03T11:41:06.294Z,0.53
2023-02-03T11:44:32.240Z,0.43
2023-02-03T11:53:09.683Z,0.33
2023-02-03T11:56:38.043Z,0.43
2023-02-03T12:00:07.103Z,0.46
2023-02-03T12:04:14.657Z,0.21
2023-02-03T12:07:52.385Z,0.30
2023-02-03T12:11:17.454Z,0.39
2023-02-03T12:14:51.278Z,0.43
2023-02-03T12:18:21.530Z,0.41
2023-02-03T12:21:50.348Z,0.45
2023-02-03T12:25:12.802Z,0.47
2023-02-03T12:28:51.438Z,0.46
2023-02-03T12:32:15.691Z,0.42
2023-02-03T12:38:53.101Z,0.31
2023-02-03T12:42:13.111Z,0.34
2023-02-03T12:45:33.924Z,0.40
2023-02-03T12:48:57.961Z,0.37
2023-02-03T12:52:27.378Z,0.37
2023-02-03T12:55:51.017Z,0.32
2023-02-03T12:59:13.450Z,0.30
2023-02-03T13:02:33.745Z,0.28
2023-02-03T13:05:56.872Z,0.28
2023-02-03T13:09:21.751Z,0.33
2023-02-03T13:12:43.090Z,0.37
2023-02-03T13:16:01.890Z,0.34
2023-02-03T13:22:34.545Z,0.51
2023-02-03T13:26:20.140Z,0.48
2023-02-03T13:30:04.853Z,0.59
2023-02-03T13:33:45.724Z,0.61
2023-02-03T13:37:37.577Z,0.69
2023-02-03T13:41:04.234Z,0.71
2023-02-03T13:44:25.031Z,0.73
2023-02-03T13:47:42.028Z,0.72
2023-02-03T13:51:09.667Z,0.74
2023-02-03T13:54:31.328Z,0.73
2023-02-03T13:57:48.321Z,0.71
2023-02-03T14:01:36.574Z,0.75
2023-02-03T14:05:04.908Z,0.75
2023-02-03T14:09:00.042Z,0.75
2023-02-03T14:13:14.444Z,0.78
2023-02-03T14:16:34.774Z,0.70
2023-02-03T14:20:07.524Z,0.71
2023-02-03T14:23:34.119Z,0.69
2023-02-03T14:26:54.443Z,0.63
2023-02-03T14:30:19.570Z,0.62
2023-02-03T14:34:38.143Z,0.61
2023-02-03T14:38:02.893Z,0.57
2023-02-03T14:41:24.729Z,0.59
2023-02-03T14:44:48.923Z,0.55
2023-02-03T14:48:18.317Z,0.50
2023-02-03T14:51:40.633Z,0.52
2023-02-03T14:55:26.836Z,0.52
2023-02-03T14:58:49.567Z,0.51
2023-02-03T15:02:31.971Z,0.53
2023-02-03T15:09:05.849Z,0.52
2023-02-03T15:12:31.281Z,0.58
2023-02-03T15:15:49.127Z,0.64
2023-02-03T15:19:09.685Z,0.66
2023-02-03T15:22:35.597Z,0.69
2023-02-03T15:25:52.041Z,0.72
2023-02-03T15:29:10.307Z,0.71
2023-02-03T15:32:30.437Z,0.72
2023-02-03T15:35:49.091Z,0.73
2023-02-03T15:39:09.985Z,0.72
2023-02-03T15:42:34.031Z,0.74
2023-02-03T15:45:56.948Z,0.74
2023-02-03T15:49:19.721Z,0.78
2023-02-03T15:52:38.985Z,0.79
2023-02-03T15:55:59.088Z,0.87
2023-02-03T15:59:29.265Z,0.89
2023-02-03T16:02:50.307Z,0.86
2023-02-03T16:06:13.348Z,0.94
2023-02-03T16:09:43.359Z,1.02
2023-02-03T16:12:59.801Z,1.10
2023-02-03T16:16:23.185Z,1.10
2023-02-03T16:23:11.436Z,1.17
2023-02-03T16:26:31.612Z,1.26
2023-02-03T16:30:02.599Z,1.30
2023-02-03T16:33:39.146Z,1.33
2023-02-03T16:40:25.725Z,1.61
2023-02-03T16:43:56.001Z,1.70
2023-02-03T16:47:34.446Z,1.84
2023-02-03T16:51:00.185Z,1.96
2023-02-03T16:54:19.567Z,2.04
2023-02-03T16:57:35.809Z,2.13
2023-02-03T17:00:54.802Z,2.18
2023-02-03T17:08:29.078Z,2.36
2023-02-03T17:11:45.514Z,2.42
2023-02-03T17:15:01.907Z,2.42
2023-02-03T17:18:20.503Z,2.46
2023-02-03T17:24:52.373Z,2.56
2023-02-03T17:28:08.727Z,2.56
2023-02-03T17:31:26.928Z,2.58
2023-02-03T17:55:17.351Z,2.68
2023-02-03T17:58:33.669Z,2.68
2023-02-03T18:01:50.039Z,2.65
2023-02-03T18:05:06.323Z,2.64
2023-02-03T18:08:25.319Z,2.65
2023-02-03T18:11:42.994Z,2.61
2023-02-03T18:14:59.211Z,2.64
2023-02-03T18:18:15.755Z,2.65
2023-02-03T18:21:33.892Z,2.62
2023-02-03T18:24:52.000Z,2.62
2023-02-03T18:28:08.394Z,2.58
2023-02-03T18:31:26.263Z,2.62
2023-02-03T18:37:58.681Z,2.63
2023-02-03T18:41:20.374Z,2.58
2023-02-03T18:44:36.770Z,2.57
2023-02-03T18:47:53.212Z,2.59
2023-02-03T18:54:25.478Z,2.61
2023-02-03T18:57:41.843Z,2.65
2023-02-03T19:01:00.027Z,2.66
2023-02-03T19:04:16.818Z,2.66
2023-02-03T19:10:49.579Z,2.65
2023-02-03T19:14:05.891Z,2.67
2023-02-03T19:17:24.116Z,2.65
2023-02-03T19:20:40.659Z,2.69
2023-02-03T19:23:57.306Z,2.66
2023-02-03T19:27:14.548Z,2.66
2023-02-03T19:30:32.550Z,2.63
2023-02-03T19:33:49.973Z,2.66
2023-02-03T19:40:22.744Z,2.63
2023-02-03T19:43:40.747Z,2.63
2023-02-03T19:47:00.037Z,2.66
2023-02-03T19:53:32.960Z,2.66
2023-02-03T19:56:52.199Z,2.57
2023-02-03T20:00:10.206Z,2.60
2023-02-03T20:03:34.166Z,2.63
2023-02-03T20:06:51.108Z,2.64
2023-02-03T20:10:08.267Z,2.61
2023-02-03T20:13:25.977Z,2.63
2023-02-03T20:16:43.675Z,2.64
2023-02-03T20:20:00.315Z,2.62
2023-02-03T20:23:16.840Z,2.63
2023-02-03T20:26:33.590Z,2.65
2023-02-03T20:29:51.418Z,2.60
2023-02-03T20:33:12.904Z,2.59
2023-02-03T20:39:46.192Z,2.61
2023-02-03T20:43:05.386Z,2.56
2023-02-03T20:46:24.503Z,2.56
2023-02-03T20:49:40.957Z,2.53
2023-02-03T20:53:02.385Z,2.55
2023-02-03T20:56:25.132Z,2.53
2023-02-03T20:59:42.554Z,2.54
2023-02-03T21:03:28.374Z,2.47
2023-02-03T21:06:44.858Z,2.49
2023-02-03T21:10:02.431Z,2.50
2023-02-03T21:13:33.759Z,2.46
2023-02-03T21:16:50.673Z,2.36
2023-02-03T21:20:07.159Z,2.33
2023-02-03T21:27:40.167Z,2.30
2023-02-03T21:30:57.912Z,2.29
2023-02-03T21:34:22.854Z,2.28
2023-02-03T21:40:54.287Z,2.30
2023-02-03T21:44:15.120Z,2.33
2023-02-03T21:47:33.961Z,2.28
2023-02-03T21:54:08.386Z,2.32
2023-02-03T21:57:25.598Z,2.32
2023-02-03T22:00:52.681Z,2.28
2023-02-03T22:04:09.798Z,2.29
2023-02-03T22:10:41.658Z,2.23
2023-02-03T22:13:58.709Z,2.18
2023-02-03T22:17:15.850Z,2.14
2023-02-03T22:27:04.906Z,2.25
2023-02-03T22:30:24.496Z,2.28
2023-02-03T22:33:41.573Z,2.26
2023-02-03T22:40:15.037Z,2.30
2023-02-03T22:43:31.404Z,2.30
2023-02-03T22:46:47.648Z,2.26
2023-02-03T22:50:03.798Z,2.31
2023-02-03T22:53:20.294Z,2.23
2023-02-03T22:56:36.601Z,2.26
2023-02-03T22:59:52.921Z,2.26
2023-02-03T23:03:09.578Z,2.26
2023-02-03T23:06:25.970Z,2.24
2023-02-03T23:09:42.186Z,2.24
2023-02-03T23:12:59.396Z,2.26
2023-02-03T23:16:16.223Z,2.20
2023-02-03T23:19:32.719Z,2.20
2023-02-03T23:22:49.031Z,2.23
2023-02-03T23:26:05.259Z,2.22
2023-02-03T23:29:21.539Z,2.27
2023-02-03T23:32:38.226Z,2.24
2023-02-03T23:39:10.699Z,2.31
2023-02-03T23:42:26.961Z,2.34
2023-02-03T23:45:43.211Z,2.36
2023-02-03T23:48:59.435Z,2.36
2023-02-03T23:55:32.191Z,2.41
2023-02-03T23:58:48.516Z,2.37
